createdAt,value
2023-08-18T00:02:21.835Z,86.13
2023-08-18T00:04:58.328Z,86.19
2023-08-18T00:07:34.675Z,86.23
2023-08-18T00:10:13.653Z,86.26
2023-08-18T00:12:50.098Z,86.28
2023-08-18T00:15:26.772Z,86.35
2023-08-18T00:18:03.773Z,86.42
2023-08-18T00:20:40.193Z,86.47
2023-08-18T00:23:16.964Z,86.46
2023-08-18T00:25:53.637Z,86.53
2023-08-18T00:28:30.325Z,86.69
2023-08-18T00:31:06.766Z,86.82
2023-08-18T00:33:43.320Z,86.91
2023-08-18T00:36:19.638Z,86.95
2023-08-18T00:38:55.955Z,86.86
2023-08-18T00:41:32.474Z,86.87
2023-08-18T00:44:09.221Z,86.91
2023-08-18T00:46:47.145Z,86.91
2023-08-18T00:49:24.631Z,86.87
2023-08-18T00:52:01.846Z,86.91
2023-08-18T00:54:38.443Z,86.92
2023-08-18T00:57:15.507Z,86.98
2023-08-18T00:59:52.444Z,87.15
2023-08-18T01:02:29.131Z,87.11
2023-08-18T01:05:06.575Z,87.11
2023-08-18T01:07:42.915Z,87.07
2023-08-18T01:10:21.565Z,87.14
2023-08-18T01:13:13.603Z,87.20
2023-08-18T01:15:54.846Z,87.06
2023-08-18T01:18:33.663Z,87.01
2023-08-18T01:21:16.197Z,87.01
2023-08-18T01:23:52.433Z,87.03
2023-08-18T01:26:28.869Z,87.01
2023-08-18T01:29:05.337Z,87.00
2023-08-18T01:31:43.127Z,86.99
2023-08-18T01:34:23.942Z,86.96
2023-08-18T01:37:04.092Z,86.90
2023-08-18T01:39:43.738Z,86.87
2023-08-18T01:42:21.085Z,86.85
2023-08-18T01:45:04.288Z,86.83
2023-08-18T01:47:40.700Z,86.82
2023-08-18T01:50:18.656Z,86.99
2023-08-18T01:52:55.056Z,87.24
2023-08-18T01:55:32.445Z,87.27
2023-08-18T01:58:09.341Z,87.32
2023-08-18T02:00:45.786Z,87.51
2023-08-18T02:03:22.190Z,87.60
2023-08-18T02:06:00.227Z,87.58
2023-08-18T02:08:36.706Z,87.56
2023-08-18T02:11:12.943Z,87.71
2023-08-18T02:13:49.228Z,87.79
2023-08-18T02:16:26.191Z,87.83
2023-08-18T02:19:02.630Z,87.81
2023-08-18T02:21:39.327Z,87.93
2023-08-18T02:24:15.770Z,88.04
2023-08-18T02:26:52.200Z,88.14
2023-08-18T02:29:28.654Z,88.26
2023-08-18T02:32:06.099Z,88.32
2023-08-18T02:34:42.541Z,88.45
2023-08-18T02:37:18.883Z,88.56
2023-08-18T02:39:55.260Z,88.56
2023-08-18T02:42:31.662Z,88.61
2023-08-18T02:45:10.245Z,88.69
2023-08-18T02:47:46.860Z,88.75
2023-08-18T02:50:23.568Z,88.80
2023-08-18T02:53:04.670Z,88.86
2023-08-18T02:55:41.042Z,88.91
2023-08-18T02:58:18.015Z,88.96
2023-08-18T03:00:54.297Z,89.04
2023-08-18T03:03:31.037Z,89.13
2023-08-18T03:06:10.328Z,89.24
2023-08-18T03:08:46.903Z,89.30
2023-08-18T03:11:24.872Z,89.35
2023-08-18T03:14:01.177Z,89.36
2023-08-18T03:16:37.861Z,89.14
2023-08-18T03:19:14.863Z,89.08
2023-08-18T03:21:51.213Z,89.12
2023-08-18T03:24:27.589Z,89.08
2023-08-18T03:27:04.169Z,89.06
2023-08-18T03:29:40.660Z,88.99
2023-08-18T03:32:17.200Z,88.98
2023-08-18T03:34:54.010Z,89.00
2023-08-18T03:37:30.798Z,88.98
2023-08-18T03:40:10.218Z,88.95
2023-08-18T03:42:46.564Z,88.95
2023-08-18T03:45:23.040Z,88.94
2023-08-18T03:47:59.510Z,88.99
2023-08-18T03:50:39.964Z,88.97
2023-08-18T03:53:16.917Z,89.01
2023-08-18T03:56:00.780Z,89.03
2023-08-18T03:58:37.373Z,89.11
2023-08-18T04:01:15.522Z,89.14
2023-08-18T04:03:54.298Z,89.19
2023-08-18T04:06:31.077Z,89.19
2023-08-18T04:09:17.009Z,89.21
2023-08-18T04:11:55.829Z,89.15
2023-08-18T04:14:32.410Z,89.11
2023-08-18T04:17:08.844Z,89.18
2023-08-18T04:19:45.130Z,89.09
2023-08-18T04:22:21.647Z,88.82
2023-08-18T04:24:58.625Z,88.70
2023-08-18T04:27:34.909Z,88.57
2023-08-18T04:30:15.531Z,88.56
2023-08-18T04:32:52.975Z,88.34
2023-08-18T04:35:29.487Z,88.16
2023-08-18T04:38:07.179Z,88.08
2023-08-18T04:40:43.616Z,87.68
2023-08-18T04:43:20.158Z,87.29
2023-08-18T04:45:56.627Z,86.95
2023-08-18T04:48:33.192Z,86.51
2023-08-18T04:51:09.938Z,86.22
2023-08-18T04:53:46.532Z,85.78
2023-08-18T04:56:23.498Z,85.62
2023-08-18T04:59:00.832Z,85.57
2023-08-18T05:01:37.597Z,85.39
2023-08-18T05:04:14.734Z,85.35
2023-08-18T05:06:51.067Z,85.24
2023-08-18T05:09:27.577Z,85.26
2023-08-18T05:12:04.768Z,85.08
2023-08-18T05:14:41.425Z,84.68
2023-08-18T05:17:20.226Z,84.48
2023-08-18T05:19:56.602Z,84.16
2023-08-18T05:22:33.679Z,83.94
2023-08-18T05:25:12.123Z,83.77
2023-08-18T05:27:49.559Z,83.56
2023-08-18T05:30:25.976Z,83.50
2023-08-18T05:33:02.430Z,83.17
2023-08-18T05:35:38.809Z,83.05
2023-08-18T05:38:16.099Z,82.65
2023-08-18T05:40:55.007Z,81.48
2023-08-18T05:43:31.284Z,79.06
2023-08-18T05:46:08.127Z,74.75
2023-08-18T05:48:45.079Z,70.88
2023-08-18T05:51:22.981Z,67.95
2023-08-18T05:53:59.433Z,64.86
2023-08-18T05:56:35.783Z,62.50
2023-08-18T05:59:12.289Z,61.92
2023-08-18T06:01:49.454Z,61.77
2023-08-18T06:04:25.785Z,61.20
2023-08-18T06:07:02.099Z,60.98
2023-08-18T06:09:38.419Z,60.82
2023-08-18T06:12:15.282Z,59.06
2023-08-18T06:14:51.654Z,59.44
2023-08-18T06:17:28.190Z,59.78
2023-08-18T06:20:05.343Z,58.80
2023-08-18T06:22:41.811Z,55.65
2023-08-18T06:25:19.071Z,54.15
2023-08-18T06:27:56.431Z,52.70
2023-08-18T06:30:33.044Z,51.51
2023-08-18T06:33:10.600Z,48.86
2023-08-18T06:35:49.606Z,49.22
2023-08-18T06:38:26.170Z,49.60
2023-08-18T06:41:02.872Z,48.13
2023-08-18T06:43:39.472Z,48.92
2023-08-18T06:46:17.634Z,48.54
2023-08-18T06:48:54.564Z,49.02
2023-08-18T06:51:31.970Z,47.73
2023-08-18T06:54:09.476Z,47.01
2023-08-18T06:56:46.278Z,47.05
2023-08-18T06:59:23.283Z,44.46
2023-08-18T07:01:59.948Z,43.79
2023-08-18T07:04:36.657Z,44.16
2023-08-18T07:07:13.161Z,43.13
2023-08-18T07:09:51.207Z,43.10
2023-08-18T07:12:28.106Z,41.70
2023-08-18T07:15:05.689Z,40.79
2023-08-18T07:17:42.213Z,38.71
2023-08-18T07:20:19.106Z,38.53
2023-08-18T07:22:56.826Z,37.46
2023-08-18T07:25:38.852Z,37.22
2023-08-18T07:28:15.207Z,37.80
2023-08-18T07:30:51.558Z,38.46
2023-08-18T07:33:28.232Z,37.87
2023-08-18T07:36:04.618Z,37.89
2023-08-18T07:38:41.896Z,37.39
2023-08-18T07:41:18.194Z,37.57
2023-08-18T07:43:54.431Z,37.50
2023-08-18T07:46:33.337Z,37.22
2023-08-18T07:49:09.992Z,35.95
2023-08-18T07:51:46.696Z,35.83
2023-08-18T07:54:24.662Z,35.42
2023-08-18T07:57:01.003Z,35.16
2023-08-18T07:59:37.467Z,35.90
2023-08-18T08:02:30.621Z,35.42
2023-08-18T08:05:08.680Z,35.72
2023-08-18T08:07:45.105Z,35.80
2023-08-18T08:10:21.761Z,35.84
2023-08-18T08:12:58.597Z,35.65
2023-08-18T08:15:37.721Z,35.87
2023-08-18T08:18:17.247Z,35.81
2023-08-18T08:20:53.828Z,35.67
2023-08-18T08:23:30.125Z,36.03
2023-08-18T08:26:06.500Z,36.00
2023-08-18T08:28:42.790Z,35.44
2023-08-18T08:31:19.456Z,35.45
2023-08-18T08:33:55.865Z,35.88
2023-08-18T08:36:34.165Z,36.28
2023-08-18T08:39:11.362Z,36.37
2023-08-18T08:41:47.844Z,35.73
2023-08-18T08:44:25.037Z,36.01
2023-08-18T08:47:03.804Z,36.39
2023-08-18T08:49:44.647Z,37.09
2023-08-18T08:52:22.998Z,37.62
2023-08-18T08:55:07.751Z,37.91
2023-08-18T08:57:44.560Z,38.18
2023-08-18T09:00:28.097Z,38.42
2023-08-18T09:03:09.794Z,39.34
2023-08-18T09:05:46.186Z,40.38
2023-08-18T09:08:22.622Z,41.39
2023-08-18T09:10:59.599Z,41.74
2023-08-18T09:13:37.178Z,42.52
2023-08-18T09:16:14.685Z,43.05
2023-08-18T09:18:57.336Z,43.75
2023-08-18T09:21:35.794Z,44.49
2023-08-18T09:24:14.386Z,45.14
2023-08-18T09:26:50.892Z,45.04
2023-08-18T09:29:27.555Z,45.54
2023-08-18T09:32:03.869Z,46.50
2023-08-18T09:34:44.045Z,46.67
2023-08-18T09:37:24.886Z,46.99
2023-08-18T09:40:00.019Z,47.09
2023-08-18T09:42:36.340Z,47.11
2023-08-18T09:45:15.286Z,47.42
2023-08-18T09:47:55.583Z,47.89
2023-08-18T09:50:37.143Z,48.43
2023-08-18T09:53:16.155Z,48.80
2023-08-18T09:55:56.354Z,49.06
2023-08-18T09:58:44.452Z,49.15
2023-08-18T10:01:22.444Z,49.62
2023-08-18T10:04:04.208Z,49.82
2023-08-18T10:06:42.836Z,49.84
2023-08-18T10:09:22.234Z,50.42
2023-08-18T10:11:59.330Z,50.29
2023-08-18T10:14:37.278Z,50.49
2023-08-18T10:17:15.772Z,51.31
2023-08-18T10:19:59.332Z,51.37
2023-08-18T10:22:40.373Z,50.81
2023-08-18T10:25:29.540Z,51.20
2023-08-18T10:28:09.790Z,50.83
2023-08-18T10:30:54.230Z,51.48
2023-08-18T10:33:45.049Z,51.64
2023-08-18T10:36:30.346Z,51.74
2023-08-18T10:39:30.506Z,51.31
2023-08-18T10:42:17.929Z,51.02
2023-08-18T10:45:28.768Z,51.61
2023-08-18T10:48:07.708Z,51.84
2023-08-18T10:50:46.765Z,51.76
2023-08-18T10:53:23.918Z,51.59
2023-08-18T10:56:00.512Z,51.62
2023-08-18T10:58:36.890Z,51.90
2023-08-18T11:01:13.667Z,51.62
2023-08-18T11:03:50.719Z,51.48
2023-08-18T11:06:28.321Z,51.65
2023-08-18T11:09:06.582Z,52.11
2023-08-18T11:11:43.909Z,52.10
2023-08-18T11:14:20.378Z,51.69
2023-08-18T11:16:56.837Z,52.37
2023-08-18T11:19:33.312Z,52.28
2023-08-18T11:22:10.096Z,52.51
2023-08-18T11:24:47.482Z,52.48
2023-08-18T11:27:24.682Z,52.33
2023-08-18T11:30:03.854Z,52.81
2023-08-18T11:32:41.189Z,52.86
2023-08-18T11:35:20.603Z,52.77
2023-08-18T11:37:58.123Z,52.60
2023-08-18T11:40:39.562Z,52.85
2023-08-18T11:43:17.538Z,51.67
2023-08-18T11:45:55.166Z,51.68
2023-08-18T11:48:32.731Z,51.79
2023-08-18T11:51:14.707Z,51.64
2023-08-18T11:53:51.342Z,52.32
2023-08-18T11:56:28.660Z,52.32
2023-08-18T11:59:05.347Z,51.34
2023-08-18T12:01:42.236Z,51.77
2023-08-18T12:04:18.777Z,51.79
2023-08-18T12:06:56.190Z,51.88
2023-08-18T12:09:32.509Z,51.64
2023-08-18T12:12:19.572Z,52.17
2023-08-18T12:14:56.607Z,52.69
2023-08-18T12:17:34.243Z,52.40
2023-08-18T12:20:13.592Z,52.39
2023-08-18T12:22:50.813Z,52.02
2023-08-18T12:25:27.694Z,52.26
2023-08-18T12:28:07.080Z,51.85
2023-08-18T12:30:43.694Z,51.30
2023-08-18T12:33:20.938Z,51.51
2023-08-18T12:35:57.733Z,51.67
2023-08-18T12:38:34.033Z,51.65
2023-08-18T12:41:10.402Z,51.57
2023-08-18T12:43:47.029Z,51.94
2023-08-18T12:46:23.315Z,51.70
2023-08-18T12:49:00.867Z,51.78
2023-08-18T12:51:38.033Z,51.97
2023-08-18T12:54:14.794Z,51.73
2023-08-18T12:56:51.697Z,51.12
2023-08-18T12:59:27.996Z,51.30
2023-08-18T13:02:05.353Z,51.49
2023-08-18T13:04:41.792Z,51.51
2023-08-18T13:07:18.844Z,51.09
2023-08-18T13:09:55.357Z,50.71
2023-08-18T13:12:31.896Z,50.56
2023-08-18T13:15:10.326Z,50.38
2023-08-18T13:17:46.912Z,50.24
2023-08-18T13:20:24.102Z,49.89
2023-08-18T13:23:03.502Z,50.45
2023-08-18T13:25:40.309Z,50.58
2023-08-18T13:28:18.434Z,50.46
2023-08-18T13:30:54.926Z,50.31
2023-08-18T13:33:32.256Z,50.49
2023-08-18T13:36:13.772Z,51.00
2023-08-18T13:38:50.362Z,51.02
2023-08-18T13:41:27.668Z,51.35
2023-08-18T13:44:04.213Z,51.58
2023-08-18T13:46:41.762Z,51.77
2023-08-18T13:49:19.404Z,51.95
2023-08-18T13:51:56.238Z,52.11
2023-08-18T13:54:32.544Z,52.07
2023-08-18T13:57:10.001Z,52.41
2023-08-18T13:59:48.398Z,53.39
2023-08-18T14:02:25.917Z,53.38
2023-08-18T14:05:05.462Z,53.38
2023-08-18T14:07:42.227Z,53.49
2023-08-18T14:10:19.806Z,53.77
2023-08-18T14:12:58.489Z,54.24
2023-08-18T14:15:35.883Z,53.97
2023-08-18T14:18:16.821Z,53.88
2023-08-18T14:20:53.138Z,53.84
2023-08-18T14:23:30.034Z,54.12
2023-08-18T14:26:06.558Z,54.02
2023-08-18T14:28:43.470Z,54.29
2023-08-18T14:31:20.898Z,54.37
2023-08-18T14:33:57.554Z,54.34
2023-08-18T14:36:33.923Z,54.34
2023-08-18T14:39:10.863Z,54.66
2023-08-18T14:41:47.347Z,54.77
2023-08-18T14:44:25.750Z,54.60
2023-08-18T14:47:02.204Z,54.66
2023-08-18T14:49:39.493Z,55.01
2023-08-18T14:52:16.921Z,54.83
2023-08-18T14:54:55.437Z,54.75
2023-08-18T14:57:32.935Z,54.55
2023-08-18T15:00:12.797Z,54.65
2023-08-18T15:02:49.195Z,54.75
2023-08-18T15:05:26.302Z,54.97
2023-08-18T15:08:05.094Z,55.23
2023-08-18T15:10:43.237Z,55.60
2023-08-18T15:13:19.740Z,56.29
2023-08-18T15:15:56.230Z,56.64
2023-08-18T15:18:32.884Z,57.58
2023-08-18T15:21:09.316Z,58.32
2023-08-18T15:23:45.694Z,59.30
2023-08-18T15:26:22.283Z,59.82
2023-08-18T15:28:58.828Z,60.25
2023-08-18T15:31:35.631Z,60.64
2023-08-18T15:34:12.339Z,60.81
2023-08-18T15:36:48.591Z,61.39
2023-08-18T15:39:25.274Z,62.21
2023-08-18T15:42:02.014Z,62.89
2023-08-18T15:44:40.136Z,63.11
2023-08-18T15:47:17.015Z,63.42
2023-08-18T15:49:54.530Z,63.71
2023-08-18T15:52:30.855Z,64.30
2023-08-18T15:55:08.576Z,64.11
2023-08-18T15:57:45.015Z,64.50
2023-08-18T16:00:24.072Z,65.09
2023-08-18T16:03:00.833Z,65.34
2023-08-18T16:05:38.083Z,65.74
2023-08-18T16:08:15.463Z,66.28
2023-08-18T16:10:52.027Z,66.33
2023-08-18T16:13:28.569Z,66.97
2023-08-18T16:16:07.348Z,66.93
2023-08-18T16:18:43.626Z,67.39
2023-08-18T16:21:20.399Z,67.65
2023-08-18T16:23:56.742Z,68.13
2023-08-18T16:26:33.173Z,68.63
2023-08-18T16:29:09.946Z,69.09
2023-08-18T16:31:46.459Z,69.63
2023-08-18T16:34:25.237Z,69.89
2023-08-18T16:37:01.745Z,70.27
2023-08-18T16:39:38.032Z,70.66
2023-08-18T16:42:14.772Z,70.59
2023-08-18T16:44:51.095Z,70.96
2023-08-18T16:47:27.686Z,71.34
2023-08-18T16:50:04.297Z,71.66
2023-08-18T16:52:40.652Z,72.04
2023-08-18T16:55:17.174Z,72.27
2023-08-18T16:57:53.868Z,72.59
2023-08-18T17:00:30.425Z,72.89
2023-08-18T17:03:08.011Z,73.36
2023-08-18T17:05:46.665Z,73.79
2023-08-18T17:08:23.294Z,74.26
2023-08-18T17:11:01.579Z,74.49
2023-08-18T17:13:37.897Z,74.52
2023-08-18T17:16:14.141Z,74.79
2023-08-18T17:18:52.415Z,74.98
2023-08-18T17:21:31.203Z,75.03
2023-08-18T17:24:08.784Z,75.35
2023-08-18T17:26:45.124Z,75.62
2023-08-18T17:29:21.755Z,75.49
2023-08-18T17:31:58.479Z,75.43
2023-08-18T17:34:34.917Z,75.73
2023-08-18T17:37:11.267Z,76.07
2023-08-18T17:39:47.756Z,76.28
2023-08-18T17:42:24.263Z,76.51
2023-08-18T17:45:00.968Z,76.40
2023-08-18T17:47:37.757Z,76.55
2023-08-18T17:50:15.507Z,76.91
2023-08-18T17:52:51.947Z,77.00
2023-08-18T17:55:28.640Z,76.98
2023-08-18T17:58:06.835Z,77.24
2023-08-18T18:00:44.986Z,77.34
2023-08-18T18:03:21.962Z,77.49
2023-08-18T18:05:58.393Z,77.53
2023-08-18T18:08:34.917Z,77.26
2023-08-18T18:11:11.309Z,77.62
2023-08-18T18:13:47.535Z,77.74
2023-08-18T18:16:23.966Z,78.11
2023-08-18T18:19:00.590Z,78.50
2023-08-18T18:21:36.950Z,78.55
2023-08-18T18:24:14.104Z,78.69
2023-08-18T18:26:50.638Z,78.78
2023-08-18T18:29:27.018Z,78.71
2023-08-18T18:32:04.250Z,78.86
2023-08-18T18:34:41.481Z,78.93
2023-08-18T18:37:18.805Z,79.20
2023-08-18T18:39:58.191Z,79.34
2023-08-18T18:42:34.818Z,79.33
2023-08-18T18:45:13.315Z,79.53
2023-08-18T18:47:50.300Z,79.47
2023-08-18T18:50:26.963Z,79.74
2023-08-18T18:53:04.057Z,79.97
2023-08-18T18:55:40.757Z,80.09
2023-08-18T18:58:17.744Z,80.37
2023-08-18T19:00:54.373Z,80.53
2023-08-18T19:03:30.798Z,80.83
2023-08-18T19:06:07.656Z,81.21
2023-08-18T19:08:44.494Z,81.59
2023-08-18T19:11:22.048Z,81.60
2023-08-18T19:13:58.349Z,81.64
2023-08-18T19:16:35.480Z,81.82
2023-08-18T19:21:54.225Z,81.97
2023-08-18T19:24:33.741Z,82.24
2023-08-18T19:27:12.241Z,82.42
2023-08-18T19:29:49.139Z,82.58
2023-08-18T19:32:26.103Z,82.79
2023-08-18T19:35:03.338Z,83.04
2023-08-18T19:37:40.220Z,83.18
2023-08-18T19:40:19.929Z,83.32
2023-08-18T19:42:57.430Z,83.30
2023-08-18T19:45:35.293Z,83.41
2023-08-18T19:48:12.816Z,83.61
2023-08-18T19:50:49.189Z,83.74
2023-08-18T19:53:26.611Z,83.87
2023-08-18T19:56:04.344Z,84.00
2023-08-18T19:58:41.406Z,84.10
2023-08-18T20:01:19.658Z,83.91
2023-08-18T20:03:56.557Z,84.08
2023-08-18T20:06:33.455Z,84.29
2023-08-18T20:09:10.794Z,84.45
2023-08-18T20:11:47.852Z,84.52
2023-08-18T20:14:24.750Z,84.64
2023-08-18T20:17:01.608Z,84.59
2023-08-18T20:19:38.802Z,84.68
2023-08-18T20:22:15.647Z,84.80
2023-08-18T20:24:52.258Z,85.05
2023-08-18T20:27:31.219Z,84.99
2023-08-18T20:30:10.171Z,84.89
2023-08-18T20:32:46.971Z,84.79
2023-08-18T20:35:26.101Z,84.81
2023-08-18T20:38:04.955Z,84.91
2023-08-18T20:40:41.683Z,84.95
2023-08-18T20:43:19.547Z,85.01
2023-08-18T20:45:56.688Z,85.14
2023-08-18T20:48:34.166Z,85.40
2023-08-18T20:51:10.800Z,85.32
2023-08-18T20:53:51.006Z,85.31
2023-08-18T20:56:27.536Z,85.41
2023-08-18T20:59:04.850Z,85.53
2023-08-18T21:01:41.481Z,85.61
2023-08-18T21:04:17.812Z,85.73
2023-08-18T21:06:54.247Z,85.71
2023-08-18T21:09:30.663Z,85.58
2023-08-18T21:12:08.043Z,85.61
2023-08-18T21:14:44.477Z,85.78
2023-08-18T21:17:21.505Z,85.98
2023-08-18T21:19:58.444Z,86.30
2023-08-18T21:22:39.212Z,86.46
2023-08-18T21:25:18.795Z,86.62
2023-08-18T21:27:55.394Z,86.86
2023-08-18T21:30:32.284Z,87.00
2023-08-18T21:33:09.782Z,87.12
2023-08-18T21:35:47.613Z,87.24
2023-08-18T21:38:24.437Z,87.48
2023-08-18T21:41:02.266Z,87.85
2023-08-18T21:43:39.121Z,88.01
2023-08-18T21:46:15.636Z,88.15
2023-08-18T21:48:52.663Z,88.31
2023-08-18T21:51:29.609Z,88.40
2023-08-18T21:54:06.663Z,88.56
2023-08-18T21:56:43.086Z,88.69
2023-08-18T21:59:19.482Z,88.83
2023-08-18T22:01:55.820Z,89.00
2023-08-18T22:04:32.309Z,89.15
2023-08-18T22:07:08.571Z,89.25
2023-08-18T22:09:45.031Z,89.40
2023-08-18T22:12:21.693Z,89.55
2023-08-18T22:14:58.063Z,89.77
2023-08-18T22:17:34.999Z,89.94
2023-08-18T22:20:14.348Z,90.02
2023-08-18T22:22:50.746Z,90.10
2023-08-18T22:25:27.115Z,90.22
2023-08-18T22:28:03.864Z,90.33
2023-08-18T22:30:41.696Z,90.43
2023-08-18T22:33:18.358Z,90.54
2023-08-18T22:36:00.270Z,90.66
2023-08-18T22:38:36.719Z,90.77
2023-08-18T22:41:13.241Z,90.82
2023-08-18T22:43:49.765Z,90.86
2023-08-18T22:46:28.816Z,90.98
2023-08-18T22:49:05.583Z,91.03
2023-08-18T22:51:42.259Z,91.07
2023-08-18T22:54:18.498Z,91.18
2023-08-18T22:56:54.839Z,91.29
2023-08-18T22:59:31.915Z,91.40
2023-08-18T23:02:08.653Z,91.51
2023-08-18T23:04:45.102Z,91.56
2023-08-18T23:07:22.094Z,91.62
2023-08-18T23:09:58.435Z,91.66
2023-08-18T23:12:35.895Z,91.77
2023-08-18T23:15:15.728Z,91.87
2023-08-18T23:17:52.480Z,91.91
2023-08-18T23:20:29.204Z,91.99
2023-08-18T23:23:05.929Z,92.05
2023-08-18T23:25:44.499Z,92.12
2023-08-18T23:28:20.802Z,92.19
2023-08-18T23:30:58.508Z,92.27
2023-08-18T23:33:34.942Z,92.34
2023-08-18T23:36:12.633Z,92.41
2023-08-18T23:38:49.924Z,92.45
2023-08-18T23:41:26.498Z,92.50
2023-08-18T23:44:03.678Z,92.55
2023-08-18T23:46:40.146Z,92.60
2023-08-18T23:49:16.881Z,92.64
2023-08-18T23:51:53.489Z,92.68
2023-08-18T23:54:30.317Z,92.73
2023-08-18T23:57:06.728Z,92.76
2023-08-18T23:59:43.227Z,92.80
